createdAt,value
2023-05-03T00:03:34.788Z,6.30
2023-05-03T00:08:51.868Z,3.63
2023-05-03T00:14:07.531Z,4.30
2023-05-03T00:19:31.408Z,2.88
2023-05-03T00:24:47.711Z,2.28
2023-05-03T00:30:04.252Z,3.17
2023-05-03T00:35:20.520Z,2.22
2023-05-03T00:40:36.191Z,8.93
2023-05-03T00:45:52.594Z,3.33
2023-05-03T00:51:15.145Z,5.07
2023-05-03T00:56:38.021Z,2.95
2023-05-03T01:02:04.676Z,5.50
2023-05-03T01:07:43.527Z,2.38
2023-05-03T01:13:36.890Z,8.30
2023-05-03T01:18:55.568Z,2.75
2023-05-03T01:24:24.721Z,3.05
2023-05-03T01:29:40.711Z,5.75
2023-05-03T01:35:08.887Z,4.32
2023-05-03T01:40:29.071Z,3.53
2023-05-03T01:45:45.327Z,7.85
2023-05-03T01:51:01.985Z,3.17
2023-05-03T01:56:17.708Z,4.03
2023-05-03T02:01:33.638Z,2.95
2023-05-03T02:06:49.404Z,2.28
2023-05-03T02:12:05.633Z,2.30
2023-05-03T02:17:22.584Z,2.35
2023-05-03T02:22:38.152Z,2.63
2023-05-03T02:27:54.131Z,4.45
2023-05-03T02:33:10.150Z,3.42
2023-05-03T02:38:25.953Z,3.60
2023-05-03T02:43:41.674Z,2.40
2023-05-03T02:48:57.167Z,2.08
2023-05-03T02:54:13.097Z,8.82
2023-05-03T02:59:29.327Z,2.88
2023-05-03T03:04:45.067Z,2.65
2023-05-03T03:10:01.112Z,2.75
2023-05-03T03:15:17.328Z,3.08
2023-05-03T03:20:33.336Z,3.25
2023-05-03T03:25:49.233Z,7.22
2023-05-03T03:31:05.301Z,3.25
2023-05-03T03:36:21.240Z,4.95
2023-05-03T03:41:37.089Z,2.70
2023-05-03T03:46:53.091Z,5.15
2023-05-03T03:52:09.220Z,4.85
2023-05-03T03:57:26.387Z,6.82
2023-05-03T04:02:42.267Z,4.32
2023-05-03T04:07:58.544Z,3.53
2023-05-03T04:13:14.271Z,5.20
2023-05-03T04:18:30.258Z,3.80
2023-05-03T04:23:46.456Z,3.28
2023-05-03T04:29:02.905Z,3.35
2023-05-03T04:34:19.194Z,2.30
2023-05-03T04:39:34.574Z,3.47
2023-05-03T04:44:50.515Z,3.42
2023-05-03T04:50:08.930Z,11.10
2023-05-03T04:55:24.792Z,3.10
2023-05-03T05:00:43.511Z,3.63
2023-05-03T05:05:59.308Z,7.60
2023-05-03T05:11:15.074Z,3.72
2023-05-03T05:16:31.027Z,3.45
2023-05-03T05:21:46.559Z,5.55
2023-05-03T05:27:03.287Z,7.85
2023-05-03T05:32:19.028Z,7.13
2023-05-03T05:37:35.080Z,11.15
2023-05-03T05:42:51.116Z,5.70
2023-05-03T05:48:07.004Z,17.20
2023-05-03T05:53:24.119Z,4.50
2023-05-03T05:58:40.649Z,8.98
2023-05-03T06:03:56.739Z,7.30
2023-05-03T06:09:23.398Z,7.68
2023-05-03T06:14:46.179Z,7.47
2023-05-03T06:20:05.330Z,4.30
2023-05-03T06:25:21.627Z,4.07
2023-05-03T06:30:37.561Z,4.88
2023-05-03T06:35:54.156Z,3.70
2023-05-03T06:41:09.908Z,5.78
2023-05-03T06:46:27.852Z,3.95
2023-05-03T06:51:43.785Z,4.03
2023-05-03T06:56:59.353Z,3.25
2023-05-03T07:02:15.350Z,3.30
2023-05-03T07:07:31.157Z,3.67
2023-05-03T07:12:46.747Z,3.53
2023-05-03T07:18:03.496Z,3.10
2023-05-03T07:23:20.062Z,4.43
2023-05-03T07:28:35.944Z,8.43
2023-05-03T07:33:51.949Z,6.93
2023-05-03T07:39:08.041Z,4.85
2023-05-03T07:44:23.848Z,3.65
2023-05-03T07:49:39.836Z,4.13
2023-05-03T07:54:55.539Z,5.72
2023-05-03T08:00:12.680Z,3.25
2023-05-03T08:05:28.506Z,2.45
2023-05-03T08:10:44.386Z,3.17
2023-05-03T08:16:00.486Z,3.75
2023-05-03T08:21:17.754Z,4.20
2023-05-03T08:26:34.434Z,10.85
2023-05-03T08:31:51.565Z,5.10
2023-05-03T08:37:07.694Z,3.35
2023-05-03T08:42:25.759Z,3.03
2023-05-03T08:47:45.200Z,3.22
2023-05-03T08:53:01.393Z,9.48
2023-05-03T08:58:17.545Z,2.83
2023-05-03T09:03:35.196Z,2.92
2023-05-03T09:08:50.923Z,8.93
2023-05-03T09:14:12.641Z,2.30
2023-05-03T09:19:28.356Z,4.43
2023-05-03T09:24:54.008Z,3.70
2023-05-03T09:30:19.889Z,2.70
2023-05-03T09:35:36.074Z,3.35
2023-05-03T09:40:51.718Z,3.85
2023-05-03T09:46:12.451Z,3.95
2023-05-03T09:51:29.289Z,2.80
2023-05-03T09:56:47.583Z,2.35
2023-05-03T10:02:07.856Z,3.85
2023-05-03T10:07:26.606Z,2.95
2023-05-03T10:12:42.912Z,2.50
2023-05-03T10:18:03.803Z,2.40
2023-05-03T10:23:19.433Z,3.45
2023-05-03T10:28:35.798Z,3.05
2023-05-03T10:33:52.862Z,3.40
2023-05-03T10:39:15.234Z,3.53
2023-05-03T10:44:49.494Z,5.57
2023-05-03T10:50:17.378Z,3.08
2023-05-03T10:55:33.570Z,3.85
2023-05-03T11:00:51.754Z,3.67
2023-05-03T11:06:07.706Z,2.65
2023-05-03T11:11:24.089Z,2.97
2023-05-03T11:16:48.237Z,2.28
2023-05-03T11:22:04.575Z,4.82
2023-05-03T11:27:26.937Z,3.38
2023-05-03T11:32:44.084Z,2.88
2023-05-03T11:38:00.144Z,4.07
2023-05-03T11:43:16.007Z,4.93
2023-05-03T11:48:33.563Z,7.60
2023-05-03T11:53:50.448Z,2.83
2023-05-03T11:59:06.201Z,3.10
2023-05-03T12:04:24.054Z,3.10
2023-05-03T12:09:41.719Z,3.35
2023-05-03T12:15:04.077Z,3.30
2023-05-03T12:25:44.456Z,2.55
2023-05-03T12:31:02.317Z,5.60
2023-05-03T12:36:21.276Z,2.25
2023-05-03T12:46:55.696Z,3.67
2023-05-03T12:52:36.218Z,2.70
2023-05-03T12:57:56.153Z,6.00
2023-05-03T13:03:31.994Z,4.40
2023-05-03T13:08:50.823Z,2.33
2023-05-03T13:14:07.685Z,2.95
2023-05-03T13:19:23.701Z,1.98
2023-05-03T13:24:41.560Z,2.33
2023-05-03T13:29:57.260Z,3.30
2023-05-03T13:35:13.596Z,4.57
2023-05-03T13:40:29.867Z,2.50
2023-05-03T13:45:45.909Z,3.72
2023-05-03T13:51:08.760Z,1.85
2023-05-03T13:56:24.357Z,6.53
2023-05-03T14:01:41.493Z,1.35
2023-05-03T14:06:59.212Z,2.00
2023-05-03T14:12:14.848Z,1.17
2023-05-03T14:17:30.901Z,1.05
2023-05-03T14:22:47.084Z,1.10
2023-05-03T14:28:02.717Z,1.20
2023-05-03T14:33:18.842Z,2.33
2023-05-03T14:38:35.604Z,2.40
2023-05-03T14:43:51.259Z,2.47
2023-05-03T14:49:07.481Z,1.88
2023-05-03T14:54:23.396Z,1.13
2023-05-03T14:59:39.378Z,1.50
2023-05-03T15:04:55.657Z,3.22
2023-05-03T15:10:11.757Z,4.38
2023-05-03T15:15:27.350Z,2.95
2023-05-03T15:20:43.255Z,3.10
2023-05-03T15:25:59.285Z,5.93
2023-05-03T15:31:17.868Z,2.03
2023-05-03T15:36:37.422Z,4.03
2023-05-03T15:41:53.171Z,3.58
2023-05-03T15:47:09.234Z,2.53
2023-05-03T15:52:25.180Z,1.38
2023-05-03T15:57:41.411Z,3.10
2023-05-03T16:02:58.311Z,2.95
2023-05-03T16:08:14.655Z,1.60
2023-05-03T16:13:30.940Z,7.15
2023-05-03T16:18:46.919Z,2.42
2023-05-03T16:24:02.264Z,1.83
2023-05-03T16:29:18.410Z,4.43
2023-05-03T16:34:34.279Z,2.55
2023-05-03T16:39:50.080Z,2.17
2023-05-03T16:45:16.232Z,3.53
2023-05-03T16:50:31.682Z,4.32
2023-05-03T16:55:47.939Z,2.92
2023-05-03T17:01:04.254Z,5.13
2023-05-03T17:06:20.502Z,5.78
2023-05-03T17:11:36.621Z,3.00
2023-05-03T17:16:52.754Z,5.63
2023-05-03T17:22:08.829Z,8.70
2023-05-03T17:27:24.887Z,5.32
2023-05-03T17:32:41.020Z,5.88
2023-05-03T17:37:57.325Z,5.07
2023-05-03T17:43:13.988Z,3.78
2023-05-03T17:48:29.912Z,4.80
2023-05-03T17:53:45.501Z,7.38
2023-05-03T17:59:02.123Z,4.03
2023-05-03T18:04:17.709Z,6.70
2023-05-03T18:09:33.897Z,8.93
2023-05-03T18:14:49.459Z,4.75
2023-05-03T18:20:06.826Z,7.80
2023-05-03T18:25:22.867Z,11.45
2023-05-03T18:30:38.704Z,7.72
2023-05-03T18:35:54.737Z,16.00
2023-05-03T18:41:16.825Z,8.88
2023-05-03T18:46:32.902Z,11.02
2023-05-03T18:51:49.903Z,7.28
2023-05-03T18:57:05.685Z,12.32
2023-05-03T19:02:21.681Z,10.73
2023-05-03T19:07:37.857Z,11.15
2023-05-03T19:12:54.091Z,9.38
2023-05-03T19:18:10.194Z,9.43
2023-05-03T19:23:25.925Z,12.63
2023-05-03T19:28:41.861Z,13.00
2023-05-03T19:33:57.910Z,14.10
2023-05-03T19:39:13.984Z,15.20
2023-05-03T19:44:30.877Z,14.25
2023-05-03T19:49:46.879Z,10.90
2023-05-03T19:55:03.694Z,7.95
2023-05-03T20:00:21.391Z,9.13
2023-05-03T20:05:37.400Z,11.57
2023-05-03T20:10:55.783Z,9.60
2023-05-03T20:16:12.530Z,8.40
2023-05-03T20:21:28.651Z,9.32
2023-05-03T20:26:44.653Z,11.75
2023-05-03T20:32:01.275Z,13.93
2023-05-03T20:37:17.267Z,8.75
2023-05-03T20:42:33.804Z,9.63
2023-05-03T20:47:49.673Z,6.72
2023-05-03T20:53:06.105Z,9.52
2023-05-03T20:58:21.626Z,9.50
2023-05-03T21:03:37.577Z,9.73
2023-05-03T21:08:53.384Z,15.15
2023-05-03T21:14:10.979Z,16.08
2023-05-03T21:19:26.724Z,10.85
2023-05-03T21:24:42.832Z,13.52
2023-05-03T21:29:58.620Z,12.57
2023-05-03T21:35:14.590Z,10.68
2023-05-03T21:40:30.585Z,12.77
2023-05-03T21:45:48.478Z,12.05
2023-05-03T21:51:04.803Z,17.48
2023-05-03T21:56:20.584Z,10.30
2023-05-03T22:01:36.283Z,11.65
2023-05-03T22:06:53.053Z,14.55
2023-05-03T22:12:22.287Z,13.63
2023-05-03T22:17:39.437Z,27.63
2023-05-03T22:22:55.528Z,19.20
2023-05-03T22:28:11.711Z,17.17
2023-05-03T22:33:27.622Z,17.55
2023-05-03T22:38:43.816Z,19.63
2023-05-03T22:43:59.751Z,17.33
2023-05-03T22:49:15.791Z,17.25
2023-05-03T22:54:31.636Z,13.13
2023-05-03T22:59:47.480Z,21.40
2023-05-03T23:05:03.549Z,19.70
2023-05-03T23:10:19.602Z,21.90
2023-05-03T23:15:37.082Z,23.33
2023-05-03T23:20:53.758Z,21.75
2023-05-03T23:26:09.465Z,20.27
2023-05-03T23:31:26.127Z,19.75
2023-05-03T23:36:43.105Z,17.73
2023-05-03T23:41:59.043Z,13.70
2023-05-03T23:47:14.612Z,17.50
2023-05-03T23:52:30.588Z,18.17
2023-05-03T23:57:46.488Z,15.05
